sensor_id;sensor_type;location;lat;lon;timestamp;P1;durP1;ratioP1;P2;durP2;ratioP2
8857;SDS011;4465;50.904;4.696;2023-06-10T00:00:46;12.30;;;7.13;;
8857;SDS011;4465;50.904;4.696;2023-06-10T00:03:13;13.77;;;7.90;;
8857;SDS011;4465;50.904;4.696;2023-06-10T00:05:39;11.20;;;7.80;;
8857;SDS011;4465;50.904;4.696;2023-06-10T00:08:06;12.00;;;7.93;;
8857;SDS011;4465;50.904;4.696;2023-06-10T00:10:33;10.93;;;7.10;;
8857;SDS011;4465;50.904;4.696;2023-06-10T00:13:06;12.70;;;7.43;;
8857;SDS011;4465;50.904;4.696;2023-06-10T00:15:36;10.50;;;7.65;;
8857;SDS011;4465;50.904;4.696;2023-06-10T00:18:05;12.38;;;7.50;;
8857;SDS011;4465;50.904;4.696;2023-06-10T00:20:34;17.65;;;8.00;;
8857;SDS011;4465;50.904;4.696;2023-06-10T00:23:01;14.35;;;8.20;;
8857;SDS011;4465;50.904;4.696;2023-06-10T00:25:27;13.93;;;8.52;;
8857;SDS011;4465;50.904;4.696;2023-06-10T00:27:55;18.80;;;8.15;;
8857;SDS011;4465;50.904;4.696;2023-06-10T00:30:23;11.82;;;7.85;;
8857;SDS011;4465;50.904;4.696;2023-06-10T00:32:49;17.08;;;8.02;;
8857;SDS011;4465;50.904;4.696;2023-06-10T00:35:15;12.85;;;8.88;;
8857;SDS011;4465;50.904;4.696;2023-06-10T00:37:45;11.10;;;7.72;;
8857;SDS011;4465;50.904;4.696;2023-06-10T00:40:11;13.68;;;7.65;;
8857;SDS011;4465;50.904;4.696;2023-06-10T00:42:38;15.98;;;8.13;;
8857;SDS011;4465;50.904;4.696;2023-06-10T00:45:04;13.35;;;8.30;;
8857;SDS011;4465;50.904;4.696;2023-06-10T00:47:30;11.38;;;7.82;;
8857;SDS011;4465;50.904;4.696;2023-06-10T00:49:57;12.75;;;8.77;;
8857;SDS011;4465;50.904;4.696;2023-06-10T00:52:24;16.10;;;8.82;;
8857;SDS011;4465;50.904;4.696;2023-06-10T00:54:53;16.75;;;8.43;;
8857;SDS011;4465;50.904;4.696;2023-06-10T00:57:19;13.35;;;8.20;;
8857;SDS011;4465;50.904;4.696;2023-06-10T00:59:49;14.93;;;8.73;;
8857;SDS011;4465;50.904;4.696;2023-06-10T01:02:15;12.98;;;8.65;;
8857;SDS011;4465;50.904;4.696;2023-06-10T01:04:46;12.38;;;8.40;;
8857;SDS011;4465;50.904;4.696;2023-06-10T01:07:28;16.38;;;9.07;;
8857;SDS011;4465;50.904;4.696;2023-06-10T01:10:31;13.35;;;8.63;;
8857;SDS011;4465;50.904;4.696;2023-06-10T01:13:07;10.98;;;8.13;;
8857;SDS011;4465;50.904;4.696;2023-06-10T01:15:37;12.45;;;8.10;;
8857;SDS011;4465;50.904;4.696;2023-06-10T01:18:04;11.30;;;7.53;;
8857;SDS011;4465;50.904;4.696;2023-06-10T01:20:35;10.07;;;7.70;;
8857;SDS011;4465;50.904;4.696;2023-06-10T01:23:05;11.98;;;8.15;;
8857;SDS011;4465;50.904;4.696;2023-06-10T01:25:32;12.20;;;7.72;;
8857;SDS011;4465;50.904;4.696;2023-06-10T01:28:05;13.18;;;8.75;;
8857;SDS011;4465;50.904;4.696;2023-06-10T01:30:35;16.05;;;8.15;;
8857;SDS011;4465;50.904;4.696;2023-06-10T01:33:17;13.88;;;8.23;;
8857;SDS011;4465;50.904;4.696;2023-06-10T01:35:47;12.18;;;7.60;;
8857;SDS011;4465;50.904;4.696;2023-06-10T01:38:15;12.02;;;7.95;;
8857;SDS011;4465;50.904;4.696;2023-06-10T01:40:43;11.10;;;7.97;;
8857;SDS011;4465;50.904;4.696;2023-06-10T01:43:09;13.43;;;8.18;;
8857;SDS011;4465;50.904;4.696;2023-06-10T01:45:35;12.82;;;9.02;;
8857;SDS011;4465;50.904;4.696;2023-06-10T01:48:03;12.98;;;8.90;;
8857;SDS011;4465;50.904;4.696;2023-06-10T01:50:29;14.90;;;8.38;;
8857;SDS011;4465;50.904;4.696;2023-06-10T01:52:56;13.52;;;8.48;;
8857;SDS011;4465;50.904;4.696;2023-06-10T01:55:23;16.08;;;8.10;;
8857;SDS011;4465;50.904;4.696;2023-06-10T01:57:49;12.93;;;9.00;;
8857;SDS011;4465;50.904;4.696;2023-06-10T02:00:15;13.98;;;8.68;;
8857;SDS011;4465;50.904;4.696;2023-06-10T02:02:41;12.50;;;8.90;;
8857;SDS011;4465;50.904;4.696;2023-06-10T02:05:09;10.70;;;8.07;;
8857;SDS011;4465;50.904;4.696;2023-06-10T02:07:38;11.98;;;8.63;;
8857;SDS011;4465;50.904;4.696;2023-06-10T02:10:04;15.07;;;8.43;;
8857;SDS011;4465;50.904;4.696;2023-06-10T02:12:33;14.32;;;9.32;;
8857;SDS011;4465;50.904;4.696;2023-06-10T02:15:02;13.57;;;9.63;;
8857;SDS011;4465;50.904;4.696;2023-06-10T02:17:30;13.60;;;9.02;;
8857;SDS011;4465;50.904;4.696;2023-06-10T02:19:55;14.40;;;8.75;;
8857;SDS011;4465;50.904;4.696;2023-06-10T02:22:22;11.75;;;8.18;;
8857;SDS011;4465;50.904;4.696;2023-06-10T02:24:51;12.13;;;8.85;;
8857;SDS011;4465;50.904;4.696;2023-06-10T02:27:18;17.55;;;10.10;;
8857;SDS011;4465;50.904;4.696;2023-06-10T02:29:43;17.20;;;10.18;;
8857;SDS011;4465;50.904;4.696;2023-06-10T02:32:14;15.35;;;9.43;;
8857;SDS011;4465;50.904;4.696;2023-06-10T02:34:40;13.90;;;9.80;;
8857;SDS011;4465;50.904;4.696;2023-06-10T02:39:33;13.80;;;9.23;;
8857;SDS011;4465;50.904;4.696;2023-06-10T02:41:59;14.50;;;9.85;;
8857;SDS011;4465;50.904;4.696;2023-06-10T02:44:25;17.35;;;10.10;;
8857;SDS011;4465;50.904;4.696;2023-06-10T02:46:53;13.57;;;9.73;;
8857;SDS011;4465;50.904;4.696;2023-06-10T02:49:19;16.92;;;10.90;;
8857;SDS011;4465;50.904;4.696;2023-06-10T02:51:45;13.68;;;9.80;;
8857;SDS011;4465;50.904;4.696;2023-06-10T02:54:11;17.77;;;11.23;;
8857;SDS011;4465;50.904;4.696;2023-06-10T02:56:39;16.80;;;9.95;;
8857;SDS011;4465;50.904;4.696;2023-06-10T02:59:07;15.40;;;10.43;;
8857;SDS011;4465;50.904;4.696;2023-06-10T03:01:33;15.68;;;10.15;;
8857;SDS011;4465;50.904;4.696;2023-06-10T03:04:03;13.75;;;9.25;;
8857;SDS011;4465;50.904;4.696;2023-06-10T03:06:32;19.27;;;10.45;;
8857;SDS011;4465;50.904;4.696;2023-06-10T03:09:01;17.80;;;9.88;;
8857;SDS011;4465;50.904;4.696;2023-06-10T03:11:29;18.20;;;9.88;;
8857;SDS011;4465;50.904;4.696;2023-06-10T03:13:57;21.05;;;10.35;;
8857;SDS011;4465;50.904;4.696;2023-06-10T03:16:26;16.55;;;10.27;;
8857;SDS011;4465;50.904;4.696;2023-06-10T03:18:52;15.20;;;9.82;;
8857;SDS011;4465;50.904;4.696;2023-06-10T03:21:19;16.85;;;10.65;;
8857;SDS011;4465;50.904;4.696;2023-06-10T03:23:45;19.38;;;10.65;;
8857;SDS011;4465;50.904;4.696;2023-06-10T03:26:11;17.00;;;11.90;;
8857;SDS011;4465;50.904;4.696;2023-06-10T03:28:39;17.17;;;10.10;;
8857;SDS011;4465;50.904;4.696;2023-06-10T03:31:05;23.52;;;11.85;;
8857;SDS011;4465;50.904;4.696;2023-06-10T03:33:36;16.05;;;10.57;;
8857;SDS011;4465;50.904;4.696;2023-06-10T03:36:02;17.55;;;11.35;;
8857;SDS011;4465;50.904;4.696;2023-06-10T03:38:28;16.73;;;10.88;;
8857;SDS011;4465;50.904;4.696;2023-06-10T03:40:54;17.85;;;10.50;;
8857;SDS011;4465;50.904;4.696;2023-06-10T03:43:20;14.98;;;10.50;;
8857;SDS011;4465;50.904;4.696;2023-06-10T03:45:46;14.65;;;10.82;;
8857;SDS011;4465;50.904;4.696;2023-06-10T03:48:13;14.43;;;10.37;;
8857;SDS011;4465;50.904;4.696;2023-06-10T03:50:39;16.70;;;10.70;;
8857;SDS011;4465;50.904;4.696;2023-06-10T03:53:05;19.67;;;11.38;;
8857;SDS011;4465;50.904;4.696;2023-06-10T03:55:33;15.65;;;10.65;;
8857;SDS011;4465;50.904;4.696;2023-06-10T03:57:59;17.10;;;10.18;;
8857;SDS011;4465;50.904;4.696;2023-06-10T04:00:29;17.42;;;11.75;;
8857;SDS011;4465;50.904;4.696;2023-06-10T04:02:55;15.73;;;11.20;;
8857;SDS011;4465;50.904;4.696;2023-06-10T04:05:23;17.83;;;11.48;;
8857;SDS011;4465;50.904;4.696;2023-06-10T04:07:56;16.33;;;10.40;;
8857;SDS011;4465;50.904;4.696;2023-06-10T04:10:22;17.17;;;11.43;;
8857;SDS011;4465;50.904;4.696;2023-06-10T04:12:53;18.40;;;10.65;;
8857;SDS011;4465;50.904;4.696;2023-06-10T04:15:19;19.35;;;11.30;;
8857;SDS011;4465;50.904;4.696;2023-06-10T04:17:45;16.40;;;10.80;;
8857;SDS011;4465;50.904;4.696;2023-06-10T04:20:10;15.18;;;10.55;;
8857;SDS011;4465;50.904;4.696;2023-06-10T04:22:36;14.85;;;10.73;;
8857;SDS011;4465;50.904;4.696;2023-06-10T04:25:02;18.77;;;11.50;;
8857;SDS011;4465;50.904;4.696;2023-06-10T04:27:31;15.43;;;10.63;;
8857;SDS011;4465;50.904;4.696;2023-06-10T04:29:57;18.33;;;10.93;;
8857;SDS011;4465;50.904;4.696;2023-06-10T04:32:22;18.35;;;12.25;;
8857;SDS011;4465;50.904;4.696;2023-06-10T04:34:51;15.65;;;11.02;;
8857;SDS011;4465;50.904;4.696;2023-06-10T04:37:17;17.23;;;10.82;;
8857;SDS011;4465;50.904;4.696;2023-06-10T04:39:43;23.30;;;12.48;;
8857;SDS011;4465;50.904;4.696;2023-06-10T04:42:09;17.17;;;11.38;;
8857;SDS011;4465;50.904;4.696;2023-06-10T04:44:35;18.45;;;12.85;;
8857;SDS011;4465;50.904;4.696;2023-06-10T04:47:01;25.58;;;12.05;;
8857;SDS011;4465;50.904;4.696;2023-06-10T04:49:27;18.10;;;11.88;;
8857;SDS011;4465;50.904;4.696;2023-06-10T04:54:20;17.05;;;11.98;;
8857;SDS011;4465;50.904;4.696;2023-06-10T04:56:46;19.13;;;12.02;;
8857;SDS011;4465;50.904;4.696;2023-06-10T04:59:12;18.25;;;12.02;;
8857;SDS011;4465;50.904;4.696;2023-06-10T05:01:39;17.33;;;11.63;;
8857;SDS011;4465;50.904;4.696;2023-06-10T05:04:05;17.08;;;11.20;;
8857;SDS011;4465;50.904;4.696;2023-06-10T05:06:33;18.25;;;11.10;;
8857;SDS011;4465;50.904;4.696;2023-06-10T05:09:02;16.90;;;10.98;;
8857;SDS011;4465;50.904;4.696;2023-06-10T05:11:28;16.67;;;10.38;;
8857;SDS011;4465;50.904;4.696;2023-06-10T05:13:54;19.48;;;11.20;;
8857;SDS011;4465;50.904;4.696;2023-06-10T05:16:22;16.27;;;10.48;;
8857;SDS011;4465;50.904;4.696;2023-06-10T05:18:50;17.08;;;10.93;;
8857;SDS011;4465;50.904;4.696;2023-06-10T05:21:17;15.95;;;11.30;;
8857;SDS011;4465;50.904;4.696;2023-06-10T05:23:48;17.27;;;10.93;;
8857;SDS011;4465;50.904;4.696;2023-06-10T05:26:14;16.20;;;11.00;;
8857;SDS011;4465;50.904;4.696;2023-06-10T05:28:40;15.63;;;10.95;;
8857;SDS011;4465;50.904;4.696;2023-06-10T05:31:11;15.93;;;11.43;;
8857;SDS011;4465;50.904;4.696;2023-06-10T05:33:37;19.85;;;11.88;;
8857;SDS011;4465;50.904;4.696;2023-06-10T05:36:02;18.00;;;11.52;;
8857;SDS011;4465;50.904;4.696;2023-06-10T05:38:29;16.60;;;10.70;;
8857;SDS011;4465;50.904;4.696;2023-06-10T05:40:54;21.52;;;11.43;;
8857;SDS011;4465;50.904;4.696;2023-06-10T05:43:22;17.90;;;11.73;;
8857;SDS011;4465;50.904;4.696;2023-06-10T05:45:50;16.63;;;10.90;;
8857;SDS011;4465;50.904;4.696;2023-06-10T05:48:16;24.48;;;11.20;;
8857;SDS011;4465;50.904;4.696;2023-06-10T05:50:42;17.27;;;10.10;;
8857;SDS011;4465;50.904;4.696;2023-06-10T05:53:14;14.98;;;9.93;;
8857;SDS011;4465;50.904;4.696;2023-06-10T05:55:43;16.17;;;9.95;;
8857;SDS011;4465;50.904;4.696;2023-06-10T05:58:10;18.67;;;10.32;;
8857;SDS011;4465;50.904;4.696;2023-06-10T06:00:40;14.30;;;10.25;;
8857;SDS011;4465;50.904;4.696;2023-06-10T06:03:08;16.02;;;9.88;;
8857;SDS011;4465;50.904;4.696;2023-06-10T06:05:35;14.75;;;10.00;;
8857;SDS011;4465;50.904;4.696;2023-06-10T06:08:03;15.80;;;9.63;;
8857;SDS011;4465;50.904;4.696;2023-06-10T06:10:38;19.35;;;10.40;;
8857;SDS011;4465;50.904;4.696;2023-06-10T06:13:07;14.98;;;10.10;;
8857;SDS011;4465;50.904;4.696;2023-06-10T06:15:32;15.13;;;10.20;;
8857;SDS011;4465;50.904;4.696;2023-06-10T06:17:58;16.42;;;10.13;;
8857;SDS011;4465;50.904;4.696;2023-06-10T06:20:24;13.52;;;10.23;;
8857;SDS011;4465;50.904;4.696;2023-06-10T06:22:50;14.15;;;9.85;;
8857;SDS011;4465;50.904;4.696;2023-06-10T06:25:16;12.32;;;8.60;;
8857;SDS011;4465;50.904;4.696;2023-06-10T06:27:42;13.88;;;9.15;;
8857;SDS011;4465;50.904;4.696;2023-06-10T06:30:08;16.02;;;8.68;;
8857;SDS011;4465;50.904;4.696;2023-06-10T06:32:34;17.67;;;9.65;;
8857;SDS011;4465;50.904;4.696;2023-06-10T06:35:02;10.68;;;8.40;;
8857;SDS011;4465;50.904;4.696;2023-06-10T06:37:31;13.02;;;8.98;;
8857;SDS011;4465;50.904;4.696;2023-06-10T06:39:57;14.68;;;9.15;;
8857;SDS011;4465;50.904;4.696;2023-06-10T06:42:23;13.60;;;8.80;;
8857;SDS011;4465;50.904;4.696;2023-06-10T06:44:49;15.18;;;8.82;;
8857;SDS011;4465;50.904;4.696;2023-06-10T06:47:15;13.77;;;8.10;;
8857;SDS011;4465;50.904;4.696;2023-06-10T06:49:45;13.52;;;9.13;;
8857;SDS011;4465;50.904;4.696;2023-06-10T06:52:14;14.95;;;8.63;;
8857;SDS011;4465;50.904;4.696;2023-06-10T06:54:41;17.30;;;8.48;;
8857;SDS011;4465;50.904;4.696;2023-06-10T06:57:07;12.27;;;8.05;;
8857;SDS011;4465;50.904;4.696;2023-06-10T06:59:33;15.75;;;8.20;;
8857;SDS011;4465;50.904;4.696;2023-06-10T07:02:02;13.40;;;8.07;;
8857;SDS011;4465;50.904;4.696;2023-06-10T07:04:31;14.70;;;7.85;;
8857;SDS011;4465;50.904;4.696;2023-06-10T07:06:59;12.77;;;8.05;;
8857;SDS011;4465;50.904;4.696;2023-06-10T07:09:25;11.27;;;7.10;;
8857;SDS011;4465;50.904;4.696;2023-06-10T07:11:51;14.32;;;7.28;;
8857;SDS011;4465;50.904;4.696;2023-06-10T07:14:17;14.35;;;7.43;;
8857;SDS011;4465;50.904;4.696;2023-06-10T07:16:45;12.85;;;7.53;;
8857;SDS011;4465;50.904;4.696;2023-06-10T07:19:13;16.20;;;7.22;;
8857;SDS011;4465;50.904;4.696;2023-06-10T07:21:41;15.50;;;7.20;;
8857;SDS011;4465;50.904;4.696;2023-06-10T07:24:07;13.32;;;7.13;;
8857;SDS011;4465;50.904;4.696;2023-06-10T07:26:33;11.77;;;7.68;;
8857;SDS011;4465;50.904;4.696;2023-06-10T07:29:01;16.13;;;7.63;;
8857;SDS011;4465;50.904;4.696;2023-06-10T07:31:27;11.15;;;7.32;;
8857;SDS011;4465;50.904;4.696;2023-06-10T07:33:53;12.50;;;7.03;;
8857;SDS011;4465;50.904;4.696;2023-06-10T07:36:18;12.85;;;7.22;;
8857;SDS011;4465;50.904;4.696;2023-06-10T07:38:47;14.30;;;7.05;;
8857;SDS011;4465;50.904;4.696;2023-06-10T07:41:13;12.18;;;6.85;;
8857;SDS011;4465;50.904;4.696;2023-06-10T07:43:39;9.57;;;6.65;;
8857;SDS011;4465;50.904;4.696;2023-06-10T07:46:05;9.52;;;6.47;;
8857;SDS011;4465;50.904;4.696;2023-06-10T07:48:31;12.75;;;6.80;;
8857;SDS011;4465;50.904;4.696;2023-06-10T07:50:57;10.23;;;6.60;;
8857;SDS011;4465;50.904;4.696;2023-06-10T07:53:25;11.65;;;6.63;;
8857;SDS011;4465;50.904;4.696;2023-06-10T07:55:51;13.45;;;7.18;;
8857;SDS011;4465;50.904;4.696;2023-06-10T07:58:17;12.88;;;6.45;;
8857;SDS011;4465;50.904;4.696;2023-06-10T08:00:43;11.40;;;6.35;;
8857;SDS011;4465;50.904;4.696;2023-06-10T08:03:12;15.80;;;6.75;;
8857;SDS011;4465;50.904;4.696;2023-06-10T08:05:40;14.93;;;6.35;;
8857;SDS011;4465;50.904;4.696;2023-06-10T08:08:06;9.50;;;6.45;;
8857;SDS011;4465;50.904;4.696;2023-06-10T08:10:37;9.25;;;5.97;;
8857;SDS011;4465;50.904;4.696;2023-06-10T08:13:03;9.35;;;6.00;;
8857;SDS011;4465;50.904;4.696;2023-06-10T08:15:32;9.65;;;6.28;;
8857;SDS011;4465;50.904;4.696;2023-06-10T08:17:58;14.18;;;6.43;;
8857;SDS011;4465;50.904;4.696;2023-06-10T08:20:24;10.32;;;5.88;;
8857;SDS011;4465;50.904;4.696;2023-06-10T08:22:50;12.18;;;5.22;;
8857;SDS011;4465;50.904;4.696;2023-06-10T08:25:16;10.85;;;5.82;;
8857;SDS011;4465;50.904;4.696;2023-06-10T08:27:42;8.02;;;5.32;;
8857;SDS011;4465;50.904;4.696;2023-06-10T08:30:07;7.88;;;5.65;;
8857;SDS011;4465;50.904;4.696;2023-06-10T08:32:38;8.93;;;5.30;;
8857;SDS011;4465;50.904;4.696;2023-06-10T08:35:04;8.00;;;5.32;;
8857;SDS011;4465;50.904;4.696;2023-06-10T08:37:30;6.50;;;5.00;;
8857;SDS011;4465;50.904;4.696;2023-06-10T08:39:56;8.18;;;5.18;;
8857;SDS011;4465;50.904;4.696;2023-06-10T08:44:58;8.75;;;4.90;;
8857;SDS011;4465;50.904;4.696;2023-06-10T08:47:30;7.95;;;5.25;;
8857;SDS011;4465;50.904;4.696;2023-06-10T08:50:02;6.75;;;4.45;;
8857;SDS011;4465;50.904;4.696;2023-06-10T08:52:36;7.88;;;4.50;;
8857;SDS011;4465;50.904;4.696;2023-06-10T08:55:13;8.18;;;5.10;;
8857;SDS011;4465;50.904;4.696;2023-06-10T08:57:43;7.47;;;5.07;;
8857;SDS011;4465;50.904;4.696;2023-06-10T09:00:11;8.65;;;4.50;;
8857;SDS011;4465;50.904;4.696;2023-06-10T09:02:38;8.43;;;5.00;;
8857;SDS011;4465;50.904;4.696;2023-06-10T09:05:04;8.18;;;5.25;;
8857;SDS011;4465;50.904;4.696;2023-06-10T09:07:31;7.82;;;5.00;;
8857;SDS011;4465;50.904;4.696;2023-06-10T09:09:57;5.93;;;4.43;;
8857;SDS011;4465;50.904;4.696;2023-06-10T09:14:52;6.25;;;4.93;;
8857;SDS011;4465;50.904;4.696;2023-06-10T09:17:18;8.65;;;4.95;;
8857;SDS011;4465;50.904;4.696;2023-06-10T09:19:47;9.00;;;5.05;;
8857;SDS011;4465;50.904;4.696;2023-06-10T09:22:14;12.32;;;5.63;;
8857;SDS011;4465;50.904;4.696;2023-06-10T09:24:40;9.23;;;4.93;;
8857;SDS011;4465;50.904;4.696;2023-06-10T09:27:08;11.18;;;5.68;;
8857;SDS011;4465;50.904;4.696;2023-06-10T09:29:44;7.47;;;5.10;;
8857;SDS011;4465;50.904;4.696;2023-06-10T09:32:20;7.05;;;5.00;;
8857;SDS011;4465;50.904;4.696;2023-06-10T09:34:47;8.80;;;5.07;;
8857;SDS011;4465;50.904;4.696;2023-06-10T09:37:20;7.93;;;5.75;;
8857;SDS011;4465;50.904;4.696;2023-06-10T09:40:08;10.43;;;5.30;;
8857;SDS011;4465;50.904;4.696;2023-06-10T09:42:36;7.30;;;5.03;;
8857;SDS011;4465;50.904;4.696;2023-06-10T09:45:03;12.50;;;5.65;;
8857;SDS011;4465;50.904;4.696;2023-06-10T09:47:35;12.95;;;5.78;;
8857;SDS011;4465;50.904;4.696;2023-06-10T09:50:04;8.40;;;5.50;;
8857;SDS011;4465;50.904;4.696;2023-06-10T09:52:30;10.45;;;5.68;;
8857;SDS011;4465;50.904;4.696;2023-06-10T09:55:00;8.27;;;5.35;;
8857;SDS011;4465;50.904;4.696;2023-06-10T09:57:30;8.93;;;5.75;;
8857;SDS011;4465;50.904;4.696;2023-06-10T10:00:04;12.45;;;5.53;;
8857;SDS011;4465;50.904;4.696;2023-06-10T10:02:33;7.88;;;5.47;;
8857;SDS011;4465;50.904;4.696;2023-06-10T10:05:19;8.07;;;5.80;;
8857;SDS011;4465;50.904;4.696;2023-06-10T10:07:47;10.15;;;5.50;;
8857;SDS011;4465;50.904;4.696;2023-06-10T10:10:13;7.33;;;5.70;;
8857;SDS011;4465;50.904;4.696;2023-06-10T10:15:08;10.20;;;6.13;;
8857;SDS011;4465;50.904;4.696;2023-06-10T10:17:44;11.05;;;5.47;;
8857;SDS011;4465;50.904;4.696;2023-06-10T10:20:20;7.55;;;5.20;;
8857;SDS011;4465;50.904;4.696;2023-06-10T10:22:52;8.77;;;5.22;;
8857;SDS011;4465;50.904;4.696;2023-06-10T10:25:40;8.98;;;5.07;;
8857;SDS011;4465;50.904;4.696;2023-06-10T10:28:11;9.98;;;5.53;;
8857;SDS011;4465;50.904;4.696;2023-06-10T10:30:42;8.90;;;5.85;;
8857;SDS011;4465;50.904;4.696;2023-06-10T10:35:38;7.72;;;5.38;;
8857;SDS011;4465;50.904;4.696;2023-06-10T10:38:05;9.73;;;5.28;;
8857;SDS011;4465;50.904;4.696;2023-06-10T10:40:32;9.88;;;5.20;;
8857;SDS011;4465;50.904;4.696;2023-06-10T10:42:59;13.05;;;6.32;;
8857;SDS011;4465;50.904;4.696;2023-06-10T10:45:30;8.50;;;5.40;;
8857;SDS011;4465;50.904;4.696;2023-06-10T10:48:09;10.30;;;5.40;;
8857;SDS011;4465;50.904;4.696;2023-06-10T10:50:38;17.98;;;5.15;;
8857;SDS011;4465;50.904;4.696;2023-06-10T10:53:06;10.45;;;5.63;;
8857;SDS011;4465;50.904;4.696;2023-06-10T10:55:32;8.55;;;5.15;;
8857;SDS011;4465;50.904;4.696;2023-06-10T10:58:05;9.75;;;5.78;;
8857;SDS011;4465;50.904;4.696;2023-06-10T11:00:45;9.57;;;5.78;;
8857;SDS011;4465;50.904;4.696;2023-06-10T11:03:15;8.25;;;5.43;;
8857;SDS011;4465;50.904;4.696;2023-06-10T11:05:42;7.95;;;4.75;;
8857;SDS011;4465;50.904;4.696;2023-06-10T11:08:13;9.80;;;4.97;;
8857;SDS011;4465;50.904;4.696;2023-06-10T11:10:40;7.72;;;5.30;;
8857;SDS011;4465;50.904;4.696;2023-06-10T11:13:15;8.23;;;5.30;;
8857;SDS011;4465;50.904;4.696;2023-06-10T11:15:44;8.25;;;5.18;;
8857;SDS011;4465;50.904;4.696;2023-06-10T11:20:59;11.07;;;5.22;;
8857;SDS011;4465;50.904;4.696;2023-06-10T11:26:10;9.63;;;5.57;;
8857;SDS011;4465;50.904;4.696;2023-06-10T11:31:25;12.15;;;5.43;;
8857;SDS011;4465;50.904;4.696;2023-06-10T11:33:55;27.52;;;6.68;;
8857;SDS011;4465;50.904;4.696;2023-06-10T11:36:30;7.65;;;4.95;;
8857;SDS011;4465;50.904;4.696;2023-06-10T11:38:59;8.90;;;4.82;;
8857;SDS011;4465;50.904;4.696;2023-06-10T11:41:28;7.57;;;4.97;;
8857;SDS011;4465;50.904;4.696;2023-06-10T11:43:56;5.82;;;4.63;;
8857;SDS011;4465;50.904;4.696;2023-06-10T11:46:43;13.90;;;4.50;;
8857;SDS011;4465;50.904;4.696;2023-06-10T11:49:11;11.88;;;5.20;;
8857;SDS011;4465;50.904;4.696;2023-06-10T11:51:40;10.32;;;4.60;;
8857;SDS011;4465;50.904;4.696;2023-06-10T11:54:09;6.07;;;4.20;;
8857;SDS011;4465;50.904;4.696;2023-06-10T11:56:37;6.13;;;4.47;;
8857;SDS011;4465;50.904;4.696;2023-06-10T11:59:06;6.77;;;4.00;;
8857;SDS011;4465;50.904;4.696;2023-06-10T12:01:33;10.45;;;4.82;;
8857;SDS011;4465;50.904;4.696;2023-06-10T12:04:06;8.40;;;4.97;;
8857;SDS011;4465;50.904;4.696;2023-06-10T12:09:05;6.78;;;4.45;;
8857;SDS011;4465;50.904;4.696;2023-06-10T12:11:32;5.97;;;4.30;;
8857;SDS011;4465;50.904;4.696;2023-06-10T12:13:59;10.52;;;4.55;;
8857;SDS011;4465;50.904;4.696;2023-06-10T12:16:25;6.37;;;4.07;;
8857;SDS011;4465;50.904;4.696;2023-06-10T12:18:50;4.53;;;3.63;;
8857;SDS011;4465;50.904;4.696;2023-06-10T12:21:25;5.55;;;3.67;;
8857;SDS011;4465;50.904;4.696;2023-06-10T12:26:34;9.05;;;3.75;;
8857;SDS011;4465;50.904;4.696;2023-06-10T12:29:23;6.20;;;4.00;;
8857;SDS011;4465;50.904;4.696;2023-06-10T12:32:00;6.95;;;3.75;;
8857;SDS011;4465;50.904;4.696;2023-06-10T12:34:32;9.68;;;4.07;;
8857;SDS011;4465;50.904;4.696;2023-06-10T12:36:58;7.72;;;3.63;;
8857;SDS011;4465;50.904;4.696;2023-06-10T12:39:25;5.82;;;3.97;;
8857;SDS011;4465;50.904;4.696;2023-06-10T12:41:52;8.50;;;4.43;;
8857;SDS011;4465;50.904;4.696;2023-06-10T12:44:18;7.40;;;3.60;;
8857;SDS011;4465;50.904;4.696;2023-06-10T12:46:44;12.65;;;3.90;;
8857;SDS011;4465;50.904;4.696;2023-06-10T12:49:19;7.90;;;4.03;;
8857;SDS011;4465;50.904;4.696;2023-06-10T12:51:46;9.35;;;4.43;;
8857;SDS011;4465;50.904;4.696;2023-06-10T12:54:15;9.77;;;4.05;;
8857;SDS011;4465;50.904;4.696;2023-06-10T12:56:41;9.95;;;4.07;;
8857;SDS011;4465;50.904;4.696;2023-06-10T12:59:07;11.30;;;4.47;;
8857;SDS011;4465;50.904;4.696;2023-06-10T13:01:32;8.83;;;4.20;;
8857;SDS011;4465;50.904;4.696;2023-06-10T13:03:58;5.47;;;4.20;;
8857;SDS011;4465;50.904;4.696;2023-06-10T13:06:25;5.38;;;4.07;;
8857;SDS011;4465;50.904;4.696;2023-06-10T13:08:51;6.93;;;4.43;;
8857;SDS011;4465;50.904;4.696;2023-06-10T13:11:20;10.07;;;4.50;;
8857;SDS011;4465;50.904;4.696;2023-06-10T13:13:46;9.87;;;4.70;;
8857;SDS011;4465;50.904;4.696;2023-06-10T13:16:12;11.63;;;4.67;;
8857;SDS011;4465;50.904;4.696;2023-06-10T13:18:40;6.00;;;3.90;;
8857;SDS011;4465;50.904;4.696;2023-06-10T13:21:08;7.35;;;4.38;;
8857;SDS011;4465;50.904;4.696;2023-06-10T13:23:34;5.67;;;4.47;;
8857;SDS011;4465;50.904;4.696;2023-06-10T13:26:00;7.47;;;4.57;;
8857;SDS011;4465;50.904;4.696;2023-06-10T13:28:28;6.43;;;5.07;;
8857;SDS011;4465;50.904;4.696;2023-06-10T13:30:54;7.83;;;4.50;;
8857;SDS011;4465;50.904;4.696;2023-06-10T13:33:20;8.83;;;4.77;;
8857;SDS011;4465;50.904;4.696;2023-06-10T13:35:48;6.80;;;4.28;;
8857;SDS011;4465;50.904;4.696;2023-06-10T13:38:14;6.13;;;4.50;;
8857;SDS011;4465;50.904;4.696;2023-06-10T13:40:40;5.77;;;4.60;;
8857;SDS011;4465;50.904;4.696;2023-06-10T13:43:06;13.32;;;5.38;;
8857;SDS011;4465;50.904;4.696;2023-06-10T13:45:32;8.43;;;4.87;;
8857;SDS011;4465;50.904;4.696;2023-06-10T13:47:57;8.17;;;4.47;;
8857;SDS011;4465;50.904;4.696;2023-06-10T13:50:23;9.73;;;5.00;;
8857;SDS011;4465;50.904;4.696;2023-06-10T13:52:50;11.98;;;5.03;;
8857;SDS011;4465;50.904;4.696;2023-06-10T13:55:18;7.63;;;5.03;;
8857;SDS011;4465;50.904;4.696;2023-06-10T13:57:45;10.48;;;4.70;;
8857;SDS011;4465;50.904;4.696;2023-06-10T14:00:14;6.65;;;4.50;;
8857;SDS011;4465;50.904;4.696;2023-06-10T14:02:42;7.53;;;4.40;;
8857;SDS011;4465;50.904;4.696;2023-06-10T14:05:14;7.45;;;5.50;;
8857;SDS011;4465;50.904;4.696;2023-06-10T14:07:40;10.13;;;4.60;;
8857;SDS011;4465;50.904;4.696;2023-06-10T14:10:09;9.73;;;4.57;;
8857;SDS011;4465;50.904;4.696;2023-06-10T14:12:37;9.65;;;5.80;;
8857;SDS011;4465;50.904;4.696;2023-06-10T14:15:03;7.45;;;4.80;;
8857;SDS011;4465;50.904;4.696;2023-06-10T14:17:31;12.05;;;4.38;;
8857;SDS011;4465;50.904;4.696;2023-06-10T14:19:57;9.27;;;4.82;;
8857;SDS011;4465;50.904;4.696;2023-06-10T14:22:23;7.93;;;5.20;;
8857;SDS011;4465;50.904;4.696;2023-06-10T14:24:49;9.00;;;4.82;;
8857;SDS011;4465;50.904;4.696;2023-06-10T14:27:15;10.50;;;4.45;;
8857;SDS011;4465;50.904;4.696;2023-06-10T14:29:46;8.23;;;4.93;;
8857;SDS011;4465;50.904;4.696;2023-06-10T14:32:12;12.75;;;5.50;;
8857;SDS011;4465;50.904;4.696;2023-06-10T14:34:37;8.05;;;4.60;;
8857;SDS011;4465;50.904;4.696;2023-06-10T14:37:09;8.00;;;4.90;;
8857;SDS011;4465;50.904;4.696;2023-06-10T14:39:40;6.95;;;4.70;;
8857;SDS011;4465;50.904;4.696;2023-06-10T14:42:06;15.52;;;4.82;;
8857;SDS011;4465;50.904;4.696;2023-06-10T14:44:32;6.93;;;4.55;;
8857;SDS011;4465;50.904;4.696;2023-06-10T14:46:58;7.28;;;4.65;;
8857;SDS011;4465;50.904;4.696;2023-06-10T14:49:24;7.82;;;4.93;;
8857;SDS011;4465;50.904;4.696;2023-06-10T14:51:52;8.85;;;4.63;;
8857;SDS011;4465;50.904;4.696;2023-06-10T14:54:18;6.72;;;4.38;;
8857;SDS011;4465;50.904;4.696;2023-06-10T14:56:44;8.10;;;4.72;;
8857;SDS011;4465;50.904;4.696;2023-06-10T14:59:10;11.70;;;4.80;;
8857;SDS011;4465;50.904;4.696;2023-06-10T15:01:36;12.10;;;4.65;;
8857;SDS011;4465;50.904;4.696;2023-06-10T15:04:02;8.05;;;4.57;;
8857;SDS011;4465;50.904;4.696;2023-06-10T15:06:28;7.32;;;4.35;;
8857;SDS011;4465;50.904;4.696;2023-06-10T15:08:56;9.63;;;5.53;;
8857;SDS011;4465;50.904;4.696;2023-06-10T15:11:24;8.63;;;4.70;;
8857;SDS011;4465;50.904;4.696;2023-06-10T15:13:50;6.25;;;4.80;;
8857;SDS011;4465;50.904;4.696;2023-06-10T15:16:15;6.60;;;4.70;;
8857;SDS011;4465;50.904;4.696;2023-06-10T15:18:41;9.40;;;4.57;;
8857;SDS011;4465;50.904;4.696;2023-06-10T15:21:07;7.65;;;5.05;;
8857;SDS011;4465;50.904;4.696;2023-06-10T15:23:33;9.05;;;4.85;;
8857;SDS011;4465;50.904;4.696;2023-06-10T15:25:59;10.73;;;4.85;;
8857;SDS011;4465;50.904;4.696;2023-06-10T15:28:25;6.00;;;4.32;;
8857;SDS011;4465;50.904;4.696;2023-06-10T15:30:53;7.15;;;4.50;;
8857;SDS011;4465;50.904;4.696;2023-06-10T15:33:19;6.95;;;4.50;;
8857;SDS011;4465;50.904;4.696;2023-06-10T15:35:47;9.32;;;5.07;;